createdAt,value
2017-09-24T00:01:04.556Z,97174.63
2017-09-24T00:15:48.043Z,97169.48
2017-09-24T00:18:15.476Z,97171.44
2017-09-24T00:39:08.520Z,97171.22
2017-09-24T00:41:35.116Z,97157.53
2017-09-24T00:44:01.640Z,97158.73
2017-09-24T00:46:28.387Z,97151.48
2017-09-24T00:48:54.975Z,97145.38
2017-09-24T00:51:21.620Z,97142.23
2017-09-24T00:53:51.453Z,97146.58
2017-09-24T00:56:19.155Z,97142.39
2017-09-24T00:58:46.337Z,97142.97
2017-09-24T01:01:14.134Z,97137.62
2017-09-24T01:06:36.453Z,97144.52
2017-09-24T01:09:05.235Z,97140.66
2017-09-24T01:11:32.085Z,97142.85
2017-09-24T01:13:59.196Z,97139.61
2017-09-24T01:16:26.117Z,97136.90
2017-09-24T01:21:27.403Z,97144.51
2017-09-24T01:23:54.243Z,97143.80
2017-09-24T01:26:21.084Z,97145.48
2017-09-24T01:28:47.500Z,97142.13
2017-09-24T01:31:15.155Z,97141.11
2017-09-24T01:33:42.861Z,97140.39
2017-09-24T01:36:09.664Z,97139.38
2017-09-24T01:41:16.944Z,97144.57
2017-09-24T01:43:44.390Z,97147.64
2017-09-24T01:46:11.341Z,97144.98
2017-09-24T01:48:40.089Z,97150.47
2017-09-24T01:51:06.723Z,97150.28
2017-09-24T01:53:33.502Z,97156.49
2017-09-24T01:56:00.147Z,97157.47
2017-09-24T01:59:31.392Z,97155.03
2017-09-24T02:01:59.237Z,97162.52
2017-09-24T02:04:26.091Z,97162.28
2017-09-24T02:06:52.847Z,97165.75
2017-09-24T02:09:19.400Z,97163.06
2017-09-24T02:11:46.862Z,97161.41
2017-09-24T03:19:46.842Z,97145.30
2017-09-24T03:22:15.843Z,97148.00
2017-09-24T03:24:42.276Z,97139.38
2017-09-24T03:27:09.083Z,97139.52
2017-09-24T03:29:36.382Z,97144.18
2017-09-24T03:32:03.120Z,97148.97
2017-09-24T03:34:29.801Z,97149.28
2017-09-24T03:39:38.800Z,97151.08
2017-09-24T03:42:05.216Z,97149.91
2017-09-24T03:44:31.771Z,97153.22
2017-09-24T03:47:00.631Z,97167.36
2017-09-24T03:49:30.516Z,97162.64
2017-09-24T03:51:57.191Z,97155.34
2017-09-24T03:54:23.997Z,97156.36
2017-09-24T03:56:50.616Z,97157.67
2017-09-24T03:59:17.229Z,97157.50
2017-09-24T04:01:43.652Z,97164.63
2017-09-24T04:04:11.060Z,97158.83
2017-09-24T04:09:32.841Z,97161.80
2017-09-24T04:12:00.348Z,97170.30
2017-09-24T04:14:27.884Z,97170.58
2017-09-24T04:16:54.670Z,97167.53
2017-09-24T04:19:25.096Z,97162.66
2017-09-24T04:24:46.431Z,97164.59
2017-09-24T04:27:13.991Z,97164.51
2017-09-24T04:41:20.491Z,97176.85
2017-09-24T04:43:47.020Z,97178.55
2017-09-24T04:46:13.719Z,97157.95
2017-09-24T04:48:40.444Z,97180.66
2017-09-24T04:51:07.937Z,97182.77
2017-09-24T04:53:34.399Z,97186.63
2017-09-24T04:58:55.140Z,97185.99
2017-09-24T05:04:15.849Z,97190.81
2017-09-24T05:06:43.048Z,97199.47
2017-09-24T05:09:09.711Z,97199.64
2017-09-24T05:11:36.584Z,97201.78
2017-09-24T05:14:03.935Z,97199.02
2017-09-24T05:16:30.445Z,97212.47
2017-09-24T05:18:59.293Z,97212.97
2017-09-24T05:21:26.720Z,97214.42
2017-09-24T05:38:25.912Z,97220.68
2017-09-24T05:40:52.541Z,97217.61
2017-09-24T05:43:19.312Z,97219.14
2017-09-24T05:45:46.880Z,97219.53
2017-09-24T05:48:13.691Z,97224.92
2017-09-24T05:50:40.400Z,97225.89
2017-09-24T05:53:06.932Z,97223.59
2017-09-24T06:07:53.128Z,97229.01
2017-09-24T06:10:19.748Z,97230.17
2017-09-24T06:12:47.201Z,97157.23
2017-09-24T06:15:13.737Z,97242.89
2017-09-24T06:17:40.357Z,97238.87
2017-09-24T06:20:06.779Z,97244.89
2017-09-24T06:22:33.376Z,97245.04
2017-09-24T06:24:59.932Z,97247.97
2017-09-24T06:27:28.235Z,97256.68
2017-09-24T06:29:55.459Z,97262.27
2017-09-24T06:32:22.028Z,97265.13
2017-09-24T06:34:48.549Z,97260.44
2017-09-24T06:54:56.823Z,97278.93
2017-09-24T06:57:23.607Z,97280.06
2017-09-24T06:59:51.396Z,97275.50
2017-09-24T07:02:19.165Z,97282.25
2017-09-24T07:04:45.689Z,97286.41
2017-09-24T07:07:12.720Z,97287.42
2017-09-24T07:09:40.300Z,97285.64
2017-09-24T07:12:06.879Z,97285.95
2017-09-24T07:14:34.128Z,97288.98
2017-09-24T07:17:01.628Z,97295.13
2017-09-24T07:19:29.405Z,97297.97
2017-09-24T07:21:56.172Z,97294.15
2017-09-24T08:10:33.248Z,97309.21
2017-09-24T08:12:59.775Z,97315.88
2017-09-24T08:15:39.488Z,97310.19
2017-09-24T08:32:50.540Z,97324.02
2017-09-24T08:35:17.488Z,97320.61
2017-09-24T08:37:44.944Z,97314.69
2017-09-24T08:40:11.720Z,97313.92
2017-09-24T08:42:39.035Z,97313.14
2017-09-24T08:45:05.643Z,97316.56
2017-09-24T08:47:32.160Z,97317.47
2017-09-24T08:50:00.412Z,97325.28
2017-09-24T08:52:29.999Z,97328.95
2017-09-24T08:54:56.883Z,97329.39
2017-09-24T08:57:25.083Z,97328.48
2017-09-24T08:59:51.735Z,97319.79
2017-09-24T09:02:18.456Z,97320.19
2017-09-24T09:04:45.015Z,97318.73
2017-09-24T09:07:11.480Z,97322.34
2017-09-24T09:09:42.161Z,97315.52
2017-09-24T09:12:11.635Z,97312.66
2017-09-24T09:14:38.156Z,97307.03
2017-09-24T09:17:06.137Z,97314.45
2017-09-24T09:19:32.895Z,97309.75
2017-09-24T09:22:00.858Z,97304.22
2017-09-24T09:24:31.118Z,97310.92
2017-09-24T09:26:57.760Z,97311.82
2017-09-24T09:29:28.523Z,97310.95
2017-09-24T09:31:58.025Z,97309.04
2017-09-24T09:34:31.864Z,97308.23
2017-09-24T09:36:59.827Z,97307.68
2017-09-24T09:39:26.900Z,97307.75
2017-09-24T09:44:51.499Z,97283.33
2017-09-24T09:47:26.427Z,97306.78
2017-09-24T09:49:57.125Z,97296.95
2017-09-24T09:52:23.820Z,97292.50
2017-09-24T09:54:50.375Z,97265.84
2017-09-24T09:57:17.101Z,97295.25
2017-09-24T09:59:43.753Z,97294.39
2017-09-24T10:02:10.320Z,97294.03
2017-09-24T10:08:00.292Z,97286.77
2017-09-24T10:10:29.316Z,97284.05
2017-09-24T10:12:57.600Z,97285.21
2017-09-24T10:18:19.535Z,97287.70
2017-09-24T10:20:47.019Z,97282.44
2017-09-24T10:23:14.992Z,97289.58
2017-09-24T10:25:41.603Z,97288.73
2017-09-24T10:28:28.108Z,97284.97
2017-09-24T10:33:50.360Z,97280.19
2017-09-24T10:36:17.965Z,97280.94
2017-09-24T10:38:44.641Z,97273.59
2017-09-24T10:41:12.132Z,97271.27
2017-09-24T10:43:39.890Z,97267.53
2017-09-24T10:46:08.043Z,97262.69
2017-09-24T10:48:34.784Z,97261.38
2017-09-24T10:51:02.860Z,97265.37
2017-09-24T10:53:30.283Z,97266.36
2017-09-24T10:55:56.851Z,97259.46
2017-09-24T10:58:24.284Z,97268.38
2017-09-24T11:01:03.965Z,97267.73
2017-09-24T11:03:40.622Z,97242.55
2017-09-24T11:06:09.136Z,97256.34
2017-09-24T11:08:36.231Z,97257.55
2017-09-24T11:11:02.732Z,97263.16
2017-09-24T11:13:29.332Z,97258.25
2017-09-24T11:15:56.745Z,97264.40
2017-09-24T11:18:23.325Z,97257.17
2017-09-24T11:20:50.778Z,97255.11
2017-09-24T11:23:18.388Z,97250.42
2017-09-24T11:25:52.060Z,97245.43
2017-09-24T11:28:19.727Z,97239.42
2017-09-24T11:30:46.447Z,97237.48
2017-09-24T11:33:13.926Z,97240.34
2017-09-24T11:35:40.464Z,97203.80
2017-09-24T11:38:09.231Z,97228.66
2017-09-24T11:40:36.045Z,97234.60
2017-09-24T11:43:02.828Z,97232.24
2017-09-24T11:45:29.704Z,97230.61
2017-09-24T11:47:57.275Z,97222.52
2017-09-24T11:50:23.995Z,97221.03
2017-09-24T11:52:50.383Z,97222.71
2017-09-24T11:55:17.715Z,97223.99
2017-09-24T11:57:45.113Z,97224.53
2017-09-24T12:00:11.635Z,97221.81
2017-09-24T12:02:38.091Z,97223.17
2017-09-24T12:05:04.680Z,97172.86
2017-09-24T12:20:53.767Z,97194.16
2017-09-24T12:23:20.571Z,97197.77
2017-09-24T12:25:47.960Z,97193.77
2017-09-24T12:28:15.365Z,97203.16
2017-09-24T12:30:43.447Z,97206.27
2017-09-24T12:33:11.051Z,97209.94
2017-09-24T12:35:37.744Z,97209.45
2017-09-24T12:41:20.608Z,97213.55
2017-09-24T12:48:59.232Z,97210.63
2017-09-24T12:51:25.907Z,97200.54
2017-09-24T12:53:53.298Z,97201.34
2017-09-24T12:56:19.994Z,97193.59
2017-09-24T12:58:46.655Z,97196.50
2017-09-24T13:01:13.292Z,97190.33
2017-09-24T13:03:40.069Z,97193.22
2017-09-24T13:06:06.705Z,97194.48
2017-09-24T13:08:36.523Z,97193.09
2017-09-24T13:11:04.644Z,97192.44
2017-09-24T13:13:31.441Z,97190.39
2017-09-24T13:16:00.289Z,97198.75
2017-09-24T13:18:27.057Z,97195.41
2017-09-24T13:20:53.932Z,97196.45
2017-09-24T13:23:21.311Z,97199.27
2017-09-24T13:25:47.763Z,97196.48
2017-09-24T13:28:15.515Z,97185.27
2017-09-24T13:30:43.103Z,97194.67
2017-09-24T13:33:15.324Z,97189.02
2017-09-24T13:35:49.167Z,97186.78
2017-09-24T13:38:16.791Z,97189.69
2017-09-24T13:40:43.297Z,97185.91
2017-09-24T13:43:11.422Z,97188.77
2017-09-24T13:45:40.712Z,97181.17
2017-09-24T13:48:08.169Z,97182.48
2017-09-24T13:50:34.584Z,97187.00
2017-09-24T13:53:01.248Z,97183.44
2017-09-24T13:55:42.941Z,97186.43
2017-09-24T13:58:09.648Z,97180.49
2017-09-24T14:00:37.111Z,97185.39
2017-09-24T14:24:36.080Z,97165.52
2017-09-24T14:30:00.695Z,97155.51
2017-09-24T14:32:27.363Z,97156.66
2017-09-24T14:34:54.140Z,97154.53
2017-09-24T14:37:21.648Z,97158.80
2017-09-24T14:51:21.392Z,97155.84
2017-09-24T14:53:49.862Z,97154.23
2017-09-24T14:56:18.280Z,97154.09
2017-09-24T14:58:45.400Z,97152.98
2017-09-24T15:04:25.477Z,97152.70
2017-09-24T15:06:51.969Z,97163.05
2017-09-24T15:09:18.548Z,97153.16
2017-09-24T15:11:45.996Z,97153.73
2017-09-24T15:14:13.454Z,97154.12
2017-09-24T15:16:40.958Z,97156.02
2017-09-24T15:19:07.758Z,97163.72
2017-09-24T15:21:35.208Z,97163.13
2017-09-24T15:24:02.927Z,97162.25
2017-09-24T15:26:36.743Z,97167.70
2017-09-24T15:29:04.433Z,97166.77
2017-09-24T15:31:32.605Z,97171.33
2017-09-24T15:33:59.874Z,97163.76
2017-09-24T15:36:26.371Z,97163.81
2017-09-24T15:38:56.054Z,97166.84
2017-09-24T15:41:22.468Z,97170.82
2017-09-24T15:43:50.627Z,97174.49
2017-09-24T15:49:15.016Z,97165.95
2017-09-24T15:51:44.818Z,97169.48
2017-09-24T15:54:11.572Z,97169.77
2017-09-24T15:59:33.552Z,97168.85
2017-09-24T16:02:00.383Z,97168.80
2017-09-24T16:04:27.190Z,97176.56
2017-09-24T16:06:54.629Z,97177.05
2017-09-24T16:48:18.552Z,97186.91
2017-09-24T16:50:45.371Z,97186.16
2017-09-24T16:56:08.345Z,97182.03
2017-09-24T16:58:34.848Z,97191.69
2017-09-24T17:01:01.396Z,97185.80
2017-09-24T17:03:27.919Z,97188.81
2017-09-24T17:05:54.729Z,97192.71
2017-09-24T17:08:22.440Z,97182.87
2017-09-24T17:10:49.247Z,97188.02
2017-09-24T17:13:16.834Z,97183.16
2017-09-24T17:15:43.773Z,97180.12
2017-09-24T17:18:11.985Z,97185.04
2017-09-24T17:20:38.764Z,97188.02
2017-09-24T17:23:06.240Z,97189.31
2017-09-24T17:25:33.783Z,97183.43
2017-09-24T17:34:18.980Z,97201.72
2017-09-24T17:36:46.667Z,97204.69
2017-09-24T17:39:14.271Z,97200.88
2017-09-24T17:41:41.966Z,97208.12
2017-09-24T17:44:09.604Z,97220.87
2017-09-24T17:46:51.684Z,97229.37
2017-09-24T17:49:18.453Z,97237.58
2017-09-24T17:51:46.184Z,97247.20
2017-09-24T17:54:14.052Z,97257.13
2017-09-24T17:56:40.930Z,97265.98
2017-09-24T17:59:07.876Z,97261.30
2017-09-24T18:04:29.845Z,97254.40
2017-09-24T18:06:57.400Z,97265.87
2017-09-24T18:09:24.187Z,97251.45
2017-09-24T18:11:51.007Z,97254.50
2017-09-24T18:14:18.492Z,97258.75
2017-09-24T18:16:45.394Z,97258.52
2017-09-24T18:19:12.705Z,97261.59
2017-09-24T18:21:39.409Z,97265.09
2017-09-24T18:24:06.178Z,97263.02
2017-09-24T18:26:32.613Z,97269.86
2017-09-24T18:28:59.224Z,97279.69
2017-09-24T18:31:26.099Z,97277.61
2017-09-24T18:33:52.836Z,97287.06
2017-09-24T18:36:19.442Z,97280.42
2017-09-24T18:38:47.824Z,97275.60
2017-09-24T18:41:19.642Z,97274.88
2017-09-24T18:43:46.355Z,97275.51
2017-09-24T18:46:12.969Z,97265.92
2017-09-24T18:48:39.380Z,97271.06
2017-09-24T18:51:06.897Z,97275.60
2017-09-24T18:53:33.549Z,97264.29
2017-09-24T18:56:00.313Z,97271.30
2017-09-24T18:58:27.711Z,97271.84
2017-09-24T19:00:55.243Z,97249.17
2017-09-24T19:03:22.650Z,97272.22
2017-09-24T19:05:50.128Z,97274.54
2017-09-24T19:08:17.621Z,97263.02
2017-09-24T19:10:44.059Z,97261.50
2017-09-24T19:13:10.575Z,97267.11
2017-09-24T19:15:37.728Z,97268.73
2017-09-24T19:18:05.064Z,97238.80
2017-09-24T19:23:27.946Z,97284.14
2017-09-24T19:25:55.603Z,97283.84
2017-09-24T19:28:23.167Z,97282.34
2017-09-24T19:30:49.776Z,97276.87
2017-09-24T19:33:19.192Z,97279.25
2017-09-24T19:35:49.658Z,97288.50
2017-09-24T19:38:19.082Z,97284.00
2017-09-24T19:40:45.537Z,97286.38
2017-09-24T19:43:12.088Z,97289.16
2017-09-24T19:45:39.548Z,97287.50
2017-09-24T19:48:06.999Z,97282.30
2017-09-24T19:50:36.463Z,97281.39
2017-09-24T19:53:03.140Z,97280.64
2017-09-24T19:55:30.616Z,97281.73
2017-09-24T19:57:58.145Z,97281.77
2017-09-24T20:00:24.875Z,97280.45
2017-09-24T20:02:51.459Z,97278.58
2017-09-24T20:05:17.976Z,97276.62
2017-09-24T20:07:44.538Z,97274.67
2017-09-24T20:10:11.028Z,97265.86
2017-09-24T20:12:40.249Z,97270.31
2017-09-24T20:15:06.793Z,97274.17
2017-09-24T20:17:48.476Z,97275.30
2017-09-24T20:20:17.795Z,97276.78
2017-09-24T20:22:44.722Z,97282.47
2017-09-24T20:25:14.912Z,97281.31
2017-09-24T20:27:41.935Z,97277.78
2017-09-24T20:30:08.554Z,97274.21
2017-09-24T20:32:35.533Z,97276.65
2017-09-24T20:35:02.944Z,97273.12
2017-09-24T20:37:29.664Z,97273.12
2017-09-24T20:39:57.050Z,97279.04
2017-09-24T20:42:26.669Z,97281.42
2017-09-24T20:44:53.298Z,97283.60
2017-09-24T20:47:19.804Z,97283.06
2017-09-24T20:49:49.375Z,97291.14
2017-09-24T20:52:15.910Z,97285.31
2017-09-24T20:54:42.538Z,97287.67
2017-09-24T20:57:10.127Z,97282.61
2017-09-24T20:59:37.464Z,97284.95
2017-09-24T21:05:00.765Z,97286.33
2017-09-24T21:07:27.487Z,97289.10
2017-09-24T21:09:54.207Z,97285.02
2017-09-24T21:12:20.744Z,97280.60
2017-09-24T21:14:47.285Z,97281.69
2017-09-24T21:17:13.972Z,97281.47
2017-09-24T21:19:41.300Z,97284.75
2017-09-24T21:22:09.815Z,97275.00
2017-09-24T21:24:36.615Z,97279.89
2017-09-24T22:09:05.012Z,97257.80
2017-09-24T22:11:31.522Z,97255.58
2017-09-24T22:13:58.332Z,97252.71
2017-09-24T22:16:24.932Z,97253.91
2017-09-24T22:19:01.552Z,97261.62
2017-09-24T22:21:28.087Z,97259.66
2017-09-24T22:23:54.701Z,97257.59
2017-09-24T22:26:21.467Z,97253.10
2017-09-24T22:28:48.020Z,97255.08
2017-09-24T22:31:15.472Z,97259.72
2017-09-24T22:38:08.971Z,97256.87
2017-09-24T22:40:36.803Z,97256.38
2017-09-24T22:43:05.083Z,97254.18
2017-09-24T22:45:41.912Z,97254.87
